Ana Sayfa
METAR-TAF:

METAR-TAF

Havaalanları :

Franklin Municipal-John Beverly Rose Airport

Franklin, Virginia, Amerika Birleşik Devletleri

Enlem: 36-42N, Boylam: 076-54W, yükseklik: 12 m

Güncel hava durumu gözlemi

Rapor saat 13:55 UTC de 27 dakika önce yapıldı.
Rüzgar kuzeydan 7 kt
Sıcaklık 19°C
Nem 60%
Basınç 1020 hPa
Görüş mesafesi: 16.1 km
Açık gökyüzü

METAR: KFKN 241355Z AUTO 01007KT 10SM CLR 19/11 A3011 RMK AO2 T01910114

Saat: 10:22 (14:22 UTC)


TAF: eksik

4.000'den fazla havaalanı için hava durumu gözlemleri ve tahminleri (METAR ve TAF raporları).

Kullanılabilir istasyonlar harita üzerinde sarı ve kırmızı noktalarla gösterilir.

İstasyonun adını görmek için fareyi noktanın üzerinde gezdirin.

Sonrasında hava gözlem ve tahminlerini görmek için tıklayın.

Haritayı değiştirmek için: yaklaştırmak için siyah artı işaretli yeşil düğmeye ve uzaklaştırmak için de eksi işaretli düğmeye hızla tıklayın; bitişik haritalar için yeşil okları kullanın.


METAR-TAF: